createdAt,value
2018-11-10T11:16:10.400Z,12.10
2018-11-10T11:17:37.198Z,12.09
2018-11-10T11:19:04.454Z,12.06
2018-11-10T11:20:31.737Z,12.01
2018-11-10T11:21:59.252Z,11.97
2018-11-10T11:34:15.843Z,11.99
2018-11-10T11:35:42.506Z,12.01
2018-11-10T11:37:38.735Z,12.01
2018-11-10T11:39:06.001Z,12.03
2018-11-10T11:40:33.333Z,12.01
2018-11-10T11:42:00.825Z,11.93
2018-11-10T11:43:28.261Z,11.93
2018-11-10T11:44:55.592Z,11.91
2018-11-10T11:46:23.109Z,11.90
2018-11-10T11:47:50.381Z,11.91
2018-11-10T12:09:29.066Z,12.38
2018-11-10T12:10:55.871Z,12.41
2018-11-10T12:12:23.094Z,12.40
2018-11-10T12:13:50.476Z,12.41
2018-11-10T12:15:17.765Z,12.39
2018-11-10T12:16:45.255Z,12.40
2018-11-10T12:18:12.677Z,12.40
2018-11-10T12:19:40.100Z,12.40
2018-11-10T12:21:07.482Z,12.40
2018-11-10T12:22:35.003Z,12.38
2018-11-10T12:24:02.409Z,12.37
2018-11-10T12:25:29.666Z,12.36
2018-11-10T12:26:57.346Z,12.34
2018-11-10T12:28:24.652Z,12.33
2018-11-10T12:29:52.003Z,12.33
2018-11-10T12:31:19.459Z,12.33
2018-11-10T12:32:46.865Z,12.30
2018-11-10T12:34:14.255Z,12.29
2018-11-10T12:35:41.724Z,12.26
2018-11-10T12:37:09.052Z,12.21
2018-11-10T12:38:36.600Z,12.18
2018-11-10T12:40:04.039Z,12.15
2018-11-10T12:41:31.224Z,12.14
2018-11-10T12:42:58.708Z,12.13
2018-11-10T12:44:26.215Z,12.12
2018-11-10T12:45:53.442Z,12.10
2018-11-10T12:47:20.739Z,12.10
2018-11-10T12:48:47.992Z,12.11
2018-11-10T12:50:15.601Z,12.10
2018-11-10T12:51:42.754Z,12.09
2018-11-10T12:53:10.173Z,12.05
2018-11-10T12:54:37.649Z,12.04
2018-11-10T12:56:05.097Z,12.03
2018-11-10T12:57:32.336Z,11.99
2018-11-10T12:58:59.837Z,11.96
2018-11-10T13:00:27.171Z,11.96
2018-11-10T13:01:54.502Z,11.93
2018-11-10T13:03:21.885Z,11.91
2018-11-10T13:04:49.203Z,11.87
2018-11-10T13:06:16.747Z,11.80
2018-11-10T13:07:44.098Z,11.76
2018-11-10T13:24:12.852Z,11.99
2018-11-10T13:25:39.406Z,12.01
2018-11-10T13:27:06.553Z,12.05
2018-11-10T13:28:33.798Z,12.05
2018-11-10T13:30:01.244Z,12.06
2018-11-10T13:31:28.994Z,12.01
2018-11-10T13:32:56.325Z,11.96
2018-11-10T13:34:23.859Z,11.90
2018-11-10T13:35:51.296Z,11.89
2018-11-10T14:02:20.881Z,12.11
2018-11-10T14:03:47.797Z,12.08
2018-11-10T14:05:15.190Z,12.05
